Time;durP1;ratioP1;P1;durP2;ratioP2;P2;SDS_P1;SDS_P2;PMS_P1;PMS_P2;Temp;Humidity;BMP_temperature;BMP_pressure;BME280_temperature;BME280_humidity;BME280_pressure;Samples;Min_cycle;Max_cycle;Signal;HPM_P1;HPM_P2
2023/05/22 00:01:03;;;;;;;38.40;14.68;;;14.40;99.90;;;;;;4024352;29;20182;-94
2023/05/22 00:03:04;;;;;;;46.00;14.90;;;14.40;99.90;;;;;;3993917;29;20701;-94
2023/05/22 00:05:05;;;;;;;34.60;15.50;;;14.50;99.90;;;;;;4009075;29;20206;-90
2023/05/22 00:07:06;;;;;;;50.38;15.57;;;14.60;99.90;;;;;;3993540;29;20200;-94
2023/05/22 00:09:07;;;;;;;39.47;15.32;;;14.80;99.90;;;;;;4024291;29;20178;-88
2023/05/22 00:11:07;;;;;;;45.88;15.52;;;14.80;99.90;;;;;;3994027;29;20194;-90
2023/05/22 00:13:08;;;;;;;39.47;14.48;;;14.50;99.90;;;;;;3993923;29;20268;-94
2023/05/22 00:15:10;;;;;;;36.92;14.82;;;14.40;99.90;;;;;;4024073;29;20244;-95
2023/05/22 00:17:13;;;;;;;42.75;15.15;;;14.50;99.90;;;;;;3993795;29;20218;-90
2023/05/22 00:19:15;;;;;;;46.70;15.55;;;14.50;99.90;;;;;;3993846;29;20176;-91
2023/05/22 00:21:16;;;;;;;35.80;16.17;;;14.60;99.90;;;;;;3993789;29;20236;-91
2023/05/22 00:23:16;;;;;;;42.90;15.63;;;14.50;99.90;;;;;;3993831;29;20247;-90
2023/05/22 00:25:18;;;;;;;37.60;15.95;;;14.50;99.90;;;;;;4024357;29;20201;-90
2023/05/22 00:27:19;;;;;;;43.00;16.45;;;14.50;99.90;;;;;;3993567;29;20180;-90
2023/05/22 00:29:20;;;;;;;34.88;15.45;;;14.60;99.90;;;;;;4024141;29;20186;-90
2023/05/22 00:31:20;;;;;;;47.40;17.38;;;14.70;99.90;;;;;;3993687;29;20179;-89
2023/05/22 00:33:22;;;;;;;44.22;17.52;;;14.70;99.90;;;;;;3993647;29;20753;-91
2023/05/22 00:35:23;;;;;;;46.00;17.95;;;14.70;99.90;;;;;;4008524;29;20199;-91
2023/05/22 00:37:24;;;;;;;36.47;16.77;;;14.70;99.90;;;;;;3993166;29;20231;-90
2023/05/22 00:39:25;;;;;;;54.17;19.40;;;14.70;99.90;;;;;;3993456;29;20591;-90
2023/05/22 00:41:26;;;;;;;37.30;17.98;;;14.70;99.90;;;;;;4008718;29;20178;-90
2023/05/22 00:43:27;;;;;;;38.60;18.55;;;14.70;99.90;;;;;;3993485;29;20211;-90
2023/05/22 00:45:28;;;;;;;45.47;19.45;;;14.90;99.90;;;;;;4023853;29;20206;-90
2023/05/22 00:47:29;;;;;;;47.17;20.02;;;14.90;99.90;;;;;;3993435;29;20252;-90
2023/05/22 00:49:30;;;;;;;47.85;19.08;;;14.60;99.90;;;;;;3993418;29;20220;-90
2023/05/22 00:51:30;;;;;;;46.78;19.33;;;14.60;99.90;;;;;;3993091;29;20192;-90
2023/05/22 00:53:32;;;;;;;46.08;18.83;;;14.60;99.90;;;;;;3993311;29;20621;-94
2023/05/22 00:55:33;;;;;;;45.38;19.50;;;14.40;99.90;;;;;;4008290;29;20255;-90
2023/05/22 00:57:35;;;;;;;47.78;21.52;;;14.40;99.90;;;;;;3992955;29;20214;-90
2023/05/22 00:59:36;;;;;;;50.35;21.38;;;14.50;99.90;;;;;;3993258;29;20176;-93
2023/05/22 01:01:40;;;;;;;46.65;21.20;;;14.60;99.90;;;;;;3993193;29;20320;-89
2023/05/22 01:03:45;;;;;;;60.03;23.00;;;14.90;99.90;;;;;;4008144;29;20183;-89
2023/05/22 01:05:46;;;;;;;62.67;23.95;;;15.00;99.90;;;;;;4008070;29;20554;-90
2023/05/22 01:07:46;;;;;;;54.38;24.13;;;14.90;99.90;;;;;;3992882;29;20248;-90
2023/05/22 01:09:47;;;;;;;47.40;24.10;;;14.80;99.90;;;;;;4007945;29;20222;-90
2023/05/22 01:11:53;;;;;;;60.75;25.40;;;14.70;99.90;;;;;;4008265;29;20179;-90
2023/05/22 01:14:09;;;;;;;52.22;25.10;;;14.80;99.90;;;;;;3993061;29;20183;-90
2023/05/22 01:16:13;;;;;;;62.08;25.08;;;14.80;99.90;;;;;;3992996;29;20200;-89
2023/05/22 01:18:35;;;;;;;47.65;23.02;;;14.60;99.90;;;;;;4008349;29;20226;-89
2023/05/22 01:20:42;;;;;;;54.83;24.92;;;14.60;99.90;;;;;;4023298;29;20178;-90
2023/05/22 01:23:14;;;;;;;53.90;25.23;;;14.50;99.90;;;;;;4008271;29;20240;-89
2023/05/22 01:25:26;;;;;;;62.13;25.73;;;14.80;99.90;;;;;;4023080;29;20197;-90
2023/05/22 01:27:52;;;;;;;62.88;24.58;;;14.80;99.90;;;;;;4022978;29;20181;-94
2023/05/22 01:30:15;;;;;;;58.45;25.65;;;14.70;99.90;;;;;;4023279;29;20218;-90
2023/05/22 01:32:23;;;;;;;52.33;25.38;;;14.60;99.90;;;;;;4007986;29;20183;-91
2023/05/22 01:34:27;;;;;;;69.75;28.25;;;14.60;99.90;;;;;;4022983;29;20177;-91
2023/05/22 01:36:36;;;;;;;62.83;29.38;;;14.50;99.90;;;;;;4007577;29;20183;-94
2023/05/22 01:38:37;;;;;;;66.65;30.52;;;14.50;99.90;;;;;;3992859;29;20317;-90
2023/05/22 01:40:39;;;;;;;68.03;30.75;;;14.40;99.90;;;;;;3992800;29;20248;-91
2023/05/22 01:42:41;;;;;;;56.65;29.27;;;14.50;99.90;;;;;;3992996;29;20670;-90
2023/05/22 01:44:41;;;;;;;67.32;31.25;;;14.80;99.90;;;;;;4007689;29;20210;-90
2023/05/22 01:46:42;;;;;;;66.82;32.25;;;14.70;99.90;;;;;;4007768;29;20568;-89
2023/05/22 01:48:43;;;;;;;77.53;32.20;;;14.70;99.90;;;;;;4007623;29;20741;-90
2023/05/22 01:50:47;;;;;;;75.45;32.97;;;14.60;99.90;;;;;;3992487;29;20175;-91
2023/05/22 01:53:19;;;;;;;76.32;32.30;;;14.60;99.90;;;;;;4037854;29;20185;-90
2023/05/22 01:55:33;;;;;;;71.22;33.30;;;14.50;99.90;;;;;;3987350;29;20210;-90
2023/05/22 01:58:16;;;;;;;84.45;34.80;;;14.60;99.90;;;;;;3992517;29;20404;-90
2023/05/22 02:00:21;;;;;;;80.80;34.20;;;14.60;99.90;;;;;;4007542;29;20270;-94
2023/05/22 02:02:26;;;;;;;82.72;36.63;;;14.50;99.90;;;;;;3992837;29;20274;-90
2023/05/22 02:04:30;;;;;;;84.88;37.53;;;14.50;99.90;;;;;;3992669;29;20179;-90
2023/05/22 02:06:32;;;;;;;94.80;38.92;;;14.70;99.90;;;;;;3992264;29;20269;-90
2023/05/22 02:08:37;;;;;;;93.93;38.97;;;14.70;99.90;;;;;;4007377;29;20183;-90
2023/05/22 02:10:39;;;;;;;92.13;38.70;;;14.50;99.90;;;;;;3992165;29;20234;-90
2023/05/22 02:12:44;;;;;;;89.50;40.55;;;14.40;99.90;;;;;;3992564;29;20266;-90
2023/05/22 02:14:45;;;;;;;105.50;41.28;;;14.50;99.90;;;;;;3992373;29;20202;-91
2023/05/22 02:16:47;;;;;;;108.15;42.05;;;14.40;99.90;;;;;;3992086;29;20179;-89
2023/05/22 02:18:48;;;;;;;105.25;43.80;;;14.30;99.90;;;;;;4007100;29;20186;-90
2023/05/22 02:20:49;;;;;;;107.40;43.30;;;14.20;99.90;;;;;;4000369;29;20577;-90
2023/05/22 02:22:50;;;;;;;100.70;42.58;;;14.40;99.90;;;;;;4006726;29;20179;-91
2023/05/22 02:24:51;;;;;;;109.75;43.13;;;14.50;99.90;;;;;;4007159;29;20239;-90
2023/05/22 02:26:51;;;;;;;116.25;45.08;;;14.60;99.90;;;;;;4007221;29;20286;-90
2023/05/22 02:28:53;;;;;;;113.70;44.45;;;14.40;99.90;;;;;;3992338;29;20180;-90
2023/05/22 02:30:53;;;;;;;111.22;45.90;;;14.20;99.90;;;;;;4007128;29;20672;-90
2023/05/22 02:32:56;;;;;;;113.63;44.58;;;14.30;99.90;;;;;;3992010;29;20180;-93
2023/05/22 02:34:57;;;;;;;106.45;43.92;;;14.30;99.90;;;;;;4006994;29;20683;-90
2023/05/22 02:36:59;;;;;;;119.38;47.00;;;14.40;99.90;;;;;;4006949;29;20175;-91
2023/05/22 02:39:00;;;;;;;120.65;47.53;;;14.40;99.90;;;;;;3991684;29;20191;-90
2023/05/22 02:41:01;;;;;;;121.55;47.35;;;14.40;99.90;;;;;;4006684;29;20178;-90
2023/05/22 02:43:01;;;;;;;115.40;47.83;;;14.60;99.90;;;;;;3991974;29;20190;-90
2023/05/22 02:45:03;;;;;;;130.05;47.80;;;14.70;99.90;;;;;;4007226;29;20615;-90
2023/05/22 02:47:04;;;;;;;116.97;47.40;;;14.80;99.90;;;;;;3992040;29;20195;-90
2023/05/22 02:49:05;;;;;;;125.47;49.20;;;14.90;99.90;;;;;;3992074;29;20171;-90
2023/05/22 02:51:06;;;;;;;130.63;48.20;;;14.90;99.90;;;;;;4006868;29;20227;-91
2023/05/22 02:53:07;;;;;;;126.60;49.15;;;14.90;99.90;;;;;;3991993;29;20175;-90
2023/05/22 02:55:08;;;;;;;130.98;50.15;;;14.90;99.90;;;;;;4007055;29;20255;-90
2023/05/22 02:57:09;;;;;;;132.95;48.83;;;14.70;99.90;;;;;;4006900;29;20207;-90
2023/05/22 02:59:10;;;;;;;132.65;49.80;;;14.80;99.90;;;;;;3992131;29;20240;-90
2023/05/22 03:01:10;;;;;;;146.70;50.53;;;14.90;99.90;;;;;;4022155;29;20183;-90
2023/05/22 03:03:11;;;;;;;129.25;50.75;;;14.80;99.90;;;;;;4006824;29;20404;-90
2023/05/22 03:05:16;;;;;;;125.80;50.15;;;14.80;99.90;;;;;;3991773;29;20200;-90
2023/05/22 03:07:19;;;;;;;134.25;50.38;;;14.80;99.90;;;;;;3991568;29;20201;-90
2023/05/22 03:09:19;;;;;;;135.95;51.85;;;14.60;99.90;;;;;;3991683;29;20191;-90
2023/05/22 03:11:20;;;;;;;133.40;50.38;;;14.70;99.90;;;;;;4006714;29;20257;-90
2023/05/22 03:13:21;;;;;;;144.18;51.42;;;14.70;99.90;;;;;;4021926;29;20193;-90
2023/05/22 03:15:22;;;;;;;128.05;49.95;;;14.60;99.90;;;;;;3991682;29;20199;-90
2023/05/22 03:17:25;;;;;;;137.10;50.13;;;14.70;99.90;;;;;;3991829;29;20215;-90
2023/05/22 03:19:26;;;;;;;122.32;49.75;;;14.70;99.90;;;;;;4007063;29;20185;-89
2023/05/22 03:21:27;;;;;;;139.95;51.92;;;14.60;99.90;;;;;;3991589;29;20229;-90
2023/05/22 03:23:27;;;;;;;121.15;49.83;;;14.50;99.90;;;;;;4006276;29;20266;-91
2023/05/22 03:25:28;;;;;;;122.97;48.85;;;14.20;99.90;;;;;;4021764;29;20210;-90
2023/05/22 03:27:29;;;;;;;134.27;49.00;;;14.10;99.90;;;;;;4006616;29;20179;-90
2023/05/22 03:29:30;;;;;;;131.57;50.50;;;14.00;99.90;;;;;;3991498;29;20183;-91
2023/05/22 03:31:33;;;;;;;105.20;47.97;;;14.20;99.90;;;;;;4006678;29;20176;-92
2023/05/22 03:33:42;;;;;;;105.07;45.95;;;14.10;99.90;;;;;;4007527;29;20190;-89
2023/05/22 03:35:43;;;;;;;124.43;48.33;;;13.90;99.90;;;;;;4002120;29;20680;-90
2023/05/22 03:37:45;;;;;;;109.82;47.70;;;13.80;99.90;;;;;;4025054;29;20210;-90
2023/05/22 03:39:46;;;;;;;114.43;49.63;;;13.80;99.90;;;;;;4009934;29;20217;-95
2023/05/22 03:41:54;;;;;;;110.53;46.97;;;14.00;99.90;;;;;;3995392;29;20235;-91
2023/05/22 03:43:58;;;;;;;128.70;51.67;;;13.90;99.90;;;;;;4024970;29;20175;-90
2023/05/22 03:45:59;;;;;;;113.47;49.97;;;13.80;99.90;;;;;;3994295;29;20216;-89
2023/05/22 03:48:01;;;;;;;124.20;50.78;;;13.90;99.90;;;;;;4009771;29;20179;-90
2023/05/22 03:50:02;;;;;;;123.28;50.50;;;14.00;99.90;;;;;;4009708;29;20186;-90
2023/05/22 03:52:03;;;;;;;116.85;49.22;;;14.20;99.90;;;;;;4009291;29;20182;-90
2023/05/22 03:54:04;;;;;;;122.60;48.30;;;14.30;99.90;;;;;;3993970;29;20182;-90
2023/05/22 03:56:05;;;;;;;125.95;48.45;;;14.40;99.90;;;;;;4009231;29;20226;-94
2023/05/22 03:58:06;;;;;;;120.75;47.45;;;14.40;99.90;;;;;;3995247;29;20230;-94
2023/05/22 04:00:10;;;;;;;120.47;48.97;;;14.30;99.90;;;;;;3994231;29;20537;-94
2023/05/22 04:02:15;;;;;;;127.25;49.45;;;14.30;99.90;;;;;;4009627;29;20186;-95
2023/05/22 04:04:16;;;;;;;128.45;48.97;;;14.30;99.90;;;;;;3994855;29;20219;-96
2023/05/22 04:06:20;;;;;;;122.25;49.83;;;14.40;99.90;;;;;;4024848;29;20270;-95
2023/05/22 04:08:21;;;;;;;126.68;48.85;;;14.20;99.90;;;;;;4009441;29;20190;-95
2023/05/22 04:10:22;;;;;;;112.22;48.60;;;14.20;99.90;;;;;;3994337;29;20291;-95
2023/05/22 04:12:23;;;;;;;131.18;48.67;;;14.30;99.90;;;;;;4009142;29;20644;-95
2023/05/22 04:14:24;;;;;;;127.47;49.72;;;14.50;99.90;;;;;;3993941;29;20537;-93
2023/05/22 04:16:25;;;;;;;134.40;49.88;;;14.60;99.90;;;;;;3995259;29;20172;-95
2023/05/22 04:18:27;;;;;;;133.70;50.35;;;14.60;99.90;;;;;;4024428;29;20217;-91
2023/05/22 04:20:28;;;;;;;126.13;50.25;;;14.60;99.90;;;;;;4009153;29;20179;-90
2023/05/22 04:22:29;;;;;;;130.27;48.25;;;14.60;99.90;;;;;;4009086;29;20720;-95
2023/05/22 04:24:30;;;;;;;124.47;49.10;;;14.50;99.90;;;;;;4009301;29;20327;-94
2023/05/22 04:26:33;;;;;;;128.65;51.13;;;14.50;99.90;;;;;;4009127;29;20179;-95
2023/05/22 04:28:34;;;;;;;119.43;50.05;;;14.60;99.90;;;;;;4009028;29;20187;-95
2023/05/22 04:30:38;;;;;;;130.43;48.95;;;14.60;99.90;;;;;;3987980;29;20192;-94
2023/05/22 04:32:39;;;;;;;120.50;48.38;;;14.30;99.90;;;;;;3993731;29;20237;-96
2023/05/22 04:34:41;;;;;;;119.38;46.33;;;14.20;99.90;;;;;;4009166;29;20175;-94
2023/05/22 04:36:46;;;;;;;125.60;47.70;;;14.20;99.90;;;;;;3993665;29;20239;-94
2023/05/22 04:38:49;;;;;;;124.13;47.08;;;14.10;99.90;;;;;;4024078;29;20221;-94
2023/05/22 04:40:49;;;;;;;114.53;45.80;;;14.30;99.90;;;;;;4008803;29;20171;-93
2023/05/22 04:42:53;;;;;;;119.18;46.22;;;14.30;99.90;;;;;;3993695;29;20213;-94
2023/05/22 04:44:56;;;;;;;111.25;45.40;;;14.30;99.90;;;;;;4008582;29;20195;-96
2023/05/22 04:46:58;;;;;;;107.45;44.08;;;14.50;99.90;;;;;;4009316;29;20660;-94
2023/05/22 04:49:00;;;;;;;113.25;43.63;;;14.60;99.90;;;;;;3993862;29;20176;-95
2023/05/22 04:51:03;;;;;;;97.68;43.22;;;14.70;99.90;;;;;;4024059;29;20208;-93
2023/05/22 04:53:04;;;;;;;93.70;43.00;;;14.70;99.90;;;;;;4009147;29;20181;-96
2023/05/22 04:55:06;;;;;;;98.45;42.45;;;14.70;99.90;;;;;;4009027;29;20199;-90
2023/05/22 04:57:07;;;;;;;106.40;42.53;;;14.60;99.90;;;;;;4008830;29;20175;-94
2023/05/22 04:59:07;;;;;;;91.85;41.83;;;14.60;99.90;;;;;;4008314;29;20223;-96
2023/05/22 05:01:09;;;;;;;99.32;41.60;;;14.60;99.90;;;;;;3993077;29;20224;-95
2023/05/22 05:03:11;;;;;;;107.18;42.50;;;14.70;99.90;;;;;;3993331;29;20184;-90
2023/05/22 05:05:11;;;;;;;102.75;44.28;;;14.90;99.90;;;;;;4008216;29;20293;-95
2023/05/22 05:07:16;;;;;;;98.18;41.47;;;14.90;99.90;;;;;;3999276;29;20243;-94
2023/05/22 05:09:17;;;;;;;99.30;41.65;;;14.90;99.90;;;;;;4001243;29;20183;-95
2023/05/22 05:11:18;;;;;;;86.28;40.85;;;15.00;99.90;;;;;;4029804;24;20223;-92
2023/05/22 05:13:19;;;;;;;83.82;40.78;;;15.10;99.90;;;;;;4017060;29;20167;-92
2023/05/22 05:15:21;;;;;;;97.40;40.97;;;15.10;99.90;;;;;;4007192;29;20230;-92
2023/05/22 05:17:22;;;;;;;86.28;40.28;;;15.00;99.90;;;;;;4001021;29;20212;-96
2023/05/22 05:19:23;;;;;;;83.53;40.97;;;14.90;99.90;;;;;;3997688;29;20188;-92
2023/05/22 05:21:26;;;;;;;86.90;39.85;;;14.80;99.90;;;;;;4031956;29;20185;-93
2023/05/22 05:23:27;;;;;;;78.78;39.42;;;15.00;99.90;;;;;;4018863;29;20641;-92
2023/05/22 05:25:30;;;;;;;92.95;40.03;;;15.10;99.90;;;;;;4015627;29;20267;-93
2023/05/22 05:27:31;;;;;;;73.80;38.42;;;15.10;99.90;;;;;;4000739;29;20191;-91
2023/05/22 05:29:32;;;;;;;78.18;37.85;;;15.10;99.90;;;;;;4015542;29;20179;-96
2023/05/22 05:31:38;;;;;;;79.30;37.25;;;15.00;99.90;;;;;;4001989;29;20188;-93
2023/05/22 05:33:59;;;;;;;76.15;37.28;;;14.80;99.90;;;;;;4017927;29;20238;-93
2023/05/22 05:36:18;;;;;;;79.32;39.53;;;14.70;99.90;;;;;;4018590;29;20235;-95
2023/05/22 05:38:39;;;;;;;84.13;38.05;;;14.80;99.90;;;;;;4016265;29;20218;-94
2023/05/22 05:40:41;;;;;;;75.60;36.47;;;14.80;99.90;;;;;;4002632;29;20220;-93
2023/05/22 05:42:58;;;;;;;84.15;37.00;;;14.80;99.90;;;;;;4023090;29;20162;-92
2023/05/22 05:45:00;;;;;;;71.43;35.30;;;14.70;99.90;;;;;;3999494;29;20579;-92
2023/05/22 05:47:04;;;;;;;76.63;38.30;;;14.70;99.90;;;;;;4014449;29;20191;-92
2023/05/22 05:49:09;;;;;;;81.05;37.10;;;14.70;99.90;;;;;;4016629;29;20671;-92
2023/05/22 05:51:11;;;;;;;73.65;38.30;;;14.70;99.90;;;;;;4001817;29;20174;-93
2023/05/22 05:53:16;;;;;;;75.20;37.60;;;14.80;99.90;;;;;;4018397;29;20239;-93
2023/05/22 05:55:26;;;;;;;77.40;38.03;;;14.80;99.90;;;;;;4031731;29;20222;-92
2023/05/22 05:57:30;;;;;;;78.82;37.50;;;14.80;99.90;;;;;;3997884;29;20207;-93
2023/05/22 05:59:30;;;;;;;67.07;35.45;;;14.90;99.90;;;;;;4000612;29;20207;-93
2023/05/22 06:01:52;;;;;;;73.68;36.80;;;14.80;99.90;;;;;;4006293;29;20179;-92
2023/05/22 06:04:01;;;;;;;79.57;37.80;;;14.90;99.90;;;;;;4002305;29;20179;-92
2023/05/22 06:06:06;;;;;;;85.35;36.03;;;14.90;99.90;;;;;;4014843;29;20199;-93
2023/05/22 06:08:27;;;;;;;78.20;37.17;;;14.80;99.90;;;;;;4011817;29;20181;-92
2023/05/22 06:10:28;;;;;;;75.78;35.88;;;14.90;99.90;;;;;;3999169;29;20196;-92
2023/05/22 06:12:36;;;;;;;78.07;37.42;;;15.00;99.90;;;;;;4029156;29;20186;-91
2023/05/22 06:14:40;;;;;;;74.05;36.05;;;15.10;99.90;;;;;;4017714;29;20174;-93
2023/05/22 06:16:41;;;;;;;78.20;39.33;;;15.00;99.90;;;;;;3999698;29;20197;-92
2023/05/22 06:18:42;;;;;;;70.47;37.35;;;14.80;99.90;;;;;;4033588;29;20302;-93
2023/05/22 06:20:43;;;;;;;75.75;37.30;;;15.00;99.90;;;;;;4015007;29;20171;-93
2023/05/22 06:22:44;;;;;;;75.47;36.67;;;15.10;99.90;;;;;;3996228;29;20187;-92
2023/05/22 06:24:45;;;;;;;75.00;36.00;;;15.20;99.90;;;;;;4015809;29;20235;-93
2023/05/22 06:26:50;;;;;;;76.75;36.60;;;15.40;99.90;;;;;;3999878;29;20723;-92
2023/05/22 06:28:52;;;;;;;75.03;36.42;;;15.20;99.90;;;;;;4031058;29;20211;-92
2023/05/22 06:30:56;;;;;;;81.03;36.58;;;15.20;99.90;;;;;;4012225;29;20179;-92
2023/05/22 06:32:57;;;;;;;75.45;35.47;;;15.00;99.90;;;;;;4014543;29;20183;-92
2023/05/22 06:34:59;;;;;;;77.53;38.47;;;15.10;99.90;;;;;;4011721;29;20199;-92
2023/05/22 06:37:02;;;;;;;71.63;36.40;;;15.10;99.90;;;;;;4013396;29;20568;-93
2023/05/22 06:39:21;;;;;;;84.15;36.20;;;15.20;99.90;;;;;;4014971;29;20158;-92
2023/05/22 06:41:31;;;;;;;70.57;35.88;;;15.40;99.90;;;;;;4030787;29;20170;-94
2023/05/22 06:43:32;;;;;;;89.20;39.20;;;15.40;99.90;;;;;;3997652;29;20166;-92
2023/05/22 06:45:59;;;;;;;78.55;38.15;;;15.60;99.90;;;;;;4014256;29;20206;-96
2023/05/22 06:48:20;;;;;;;84.15;38.38;;;15.60;99.90;;;;;;4016578;29;20187;-93
2023/05/22 06:50:34;;;;;;;73.70;36.97;;;15.50;99.90;;;;;;3998944;29;20186;-93
2023/05/22 06:52:37;;;;;;;78.25;37.80;;;15.40;99.90;;;;;;4011278;29;20183;-93
2023/05/22 06:54:41;;;;;;;82.65;36.78;;;15.40;99.90;;;;;;4014214;29;20230;-92
2023/05/22 06:56:44;;;;;;;89.55;36.78;;;15.40;99.90;;;;;;4008596;29;20174;-92
2023/05/22 06:58:49;;;;;;;69.28;35.33;;;15.50;99.90;;;;;;3995103;29;20219;-93
2023/05/22 07:00:50;;;;;;;76.03;35.35;;;15.60;99.90;;;;;;4014050;29;20534;-93
2023/05/22 07:02:57;;;;;;;65.25;35.90;;;15.70;99.90;;;;;;4004144;29;20277;-93
2023/05/22 07:05:03;;;;;;;75.13;35.05;;;15.80;99.90;;;;;;4016953;29;20202;-95
2023/05/22 07:07:19;;;;;;;67.88;33.53;;;15.90;99.90;;;;;;4017152;29;20269;-94
2023/05/22 07:09:20;;;;;;;80.15;35.60;;;15.80;99.90;;;;;;3999201;29;20183;-93
2023/05/22 07:11:22;;;;;;;72.68;35.03;;;15.80;99.90;;;;;;4033156;29;20206;-94
2023/05/22 07:13:23;;;;;;;75.47;33.35;;;15.80;99.90;;;;;;4014847;29;20258;-95
2023/05/22 07:15:27;;;;;;;73.72;33.47;;;15.80;99.90;;;;;;4013754;29;20191;-94
2023/05/22 07:17:31;;;;;;;85.15;35.30;;;15.60;99.90;;;;;;4015307;29;20197;-96
2023/05/22 07:19:32;;;;;;;71.75;31.83;;;15.60;99.90;;;;;;3999461;29;20681;-92
2023/05/22 07:21:36;;;;;;;71.45;34.20;;;15.70;99.90;;;;;;3997714;29;20675;-92
2023/05/22 07:23:38;;;;;;;136.75;44.38;;;15.80;99.90;;;;;;3997401;29;20629;-93
2023/05/22 07:25:39;;;;;;;80.82;35.72;;;15.80;99.90;;;;;;3999517;29;20195;-92
2023/05/22 07:27:41;;;;;;;69.03;34.05;;;15.90;99.90;;;;;;3997609;29;20226;-92
2023/05/22 07:29:42;;;;;;;71.55;31.65;;;15.60;99.90;;;;;;4000106;29;20155;-93
2023/05/22 07:31:43;;;;;;;58.08;31.13;;;15.70;99.90;;;;;;4016137;29;20193;-94
2023/05/22 07:33:45;;;;;;;58.55;31.40;;;15.80;99.90;;;;;;4013630;29;20251;-93
2023/05/22 07:35:46;;;;;;;60.25;30.70;;;15.90;99.90;;;;;;4012482;29;20199;-92
2023/05/22 07:37:46;;;;;;;62.10;31.88;;;16.00;99.90;;;;;;4012055;29;20210;-92
2023/05/22 07:40:08;;;;;;;57.33;31.20;;;15.80;99.90;;;;;;4017309;29;20689;-93
2023/05/22 07:42:17;;;;;;;59.95;31.60;;;15.80;99.90;;;;;;4015087;29;20182;-93
2023/05/22 07:44:23;;;;;;;63.00;32.40;;;16.00;99.90;;;;;;4013829;29;20179;-93
2023/05/22 07:46:24;;;;;;;66.07;31.08;;;16.20;99.90;;;;;;4012534;29;20213;-93
2023/05/22 07:48:34;;;;;;;56.38;30.50;;;16.10;99.90;;;;;;4015823;29;20177;-93
2023/05/22 07:50:36;;;;;;;53.38;29.08;;;15.90;99.90;;;;;;3998472;29;20546;-95
2023/05/22 07:52:37;;;;;;;56.15;29.67;;;15.70;99.90;;;;;;4000882;29;20175;-93
2023/05/22 07:54:39;;;;;;;69.43;30.80;;;15.60;99.90;;;;;;3999069;29;20188;-94
2023/05/22 07:56:42;;;;;;;64.60;30.80;;;15.60;99.90;;;;;;3997736;29;20164;-92
2023/05/22 07:58:43;;;;;;;51.10;30.05;;;15.60;99.90;;;;;;3996711;29;20272;-92
2023/05/22 08:00:44;;;;;;;58.05;31.00;;;15.80;99.90;;;;;;4013403;29;20200;-93
2023/05/22 08:02:45;;;;;;;61.75;30.58;;;16.10;99.90;;;;;;4014262;29;20190;-92
2023/05/22 08:04:47;;;;;;;56.03;30.05;;;16.20;99.90;;;;;;3999453;29;20168;-92
2023/05/22 08:06:47;;;;;;;51.83;28.88;;;15.80;99.90;;;;;;4027546;29;20217;-92
2023/05/22 08:08:51;;;;;;;60.83;30.80;;;15.70;99.90;;;;;;3999807;29;20184;-92
2023/05/22 08:10:52;;;;;;;62.65;28.73;;;15.90;99.90;;;;;;4014616;29;20183;-93
2023/05/22 08:12:53;;;;;;;56.20;28.00;;;15.80;99.90;;;;;;3998248;29;20194;-94
2023/05/22 08:14:54;;;;;;;61.08;29.77;;;15.30;99.90;;;;;;4012810;29;20191;-96
2023/05/22 08:16:57;;;;;;;59.60;30.58;;;15.30;99.90;;;;;;4032054;29;20166;-93
2023/05/22 08:18:58;;;;;;;58.30;29.30;;;15.50;99.90;;;;;;4014625;29;20195;-92
2023/05/22 08:20:59;;;;;;;57.53;29.27;;;15.40;99.90;;;;;;4017560;29;20163;-92
2023/05/22 08:23:00;;;;;;;49.65;27.40;;;15.50;99.90;;;;;;4004110;29;20247;-91
2023/05/22 08:25:01;;;;;;;49.15;27.92;;;15.70;99.90;;;;;;4032259;29;20206;-92
2023/05/22 08:27:01;;;;;;;54.10;28.40;;;15.80;99.90;;;;;;4001303;29;20187;-93
2023/05/22 08:29:02;;;;;;;45.78;27.13;;;16.00;99.90;;;;;;4033497;29;20182;-93
2023/05/22 08:31:03;;;;;;;52.95;26.98;;;16.10;99.90;;;;;;4004236;29;20274;-92
2023/05/22 08:33:04;;;;;;;50.30;27.55;;;16.20;99.90;;;;;;4001478;29;20656;-92
2023/05/22 08:35:05;;;;;;;54.17;28.27;;;16.40;99.90;;;;;;4015271;29;20210;-92
2023/05/22 08:37:08;;;;;;;54.88;27.65;;;16.60;99.90;;;;;;4017184;29;20668;-92
2023/05/22 08:39:09;;;;;;;50.22;26.23;;;16.90;99.90;;;;;;3999650;29;20168;-93
2023/05/22 08:41:10;;;;;;;47.45;27.00;;;16.70;99.90;;;;;;4015858;29;20195;-92
2023/05/22 08:43:11;;;;;;;46.55;26.98;;;16.60;99.90;;;;;;4003560;29;20178;-92
2023/05/22 08:45:28;;;;;;;50.30;27.45;;;16.30;99.90;;;;;;4015942;29;20246;-92
2023/05/22 08:47:33;;;;;;;53.08;28.38;;;16.00;99.90;;;;;;3998601;29;20180;-92
2023/05/22 08:49:34;;;;;;;50.30;27.90;;;16.00;99.90;;;;;;3999848;29;20190;-92
2023/05/22 08:51:41;;;;;;;52.40;27.00;;;16.20;99.90;;;;;;3999280;29;20176;-92
2023/05/22 08:53:42;;;;;;;58.03;28.42;;;16.30;99.90;;;;;;4002329;29;20210;-92
2023/05/22 08:55:43;;;;;;;52.55;28.48;;;16.20;99.90;;;;;;4016475;29;20203;-96
2023/05/22 08:57:49;;;;;;;53.88;27.15;;;16.60;99.90;;;;;;4015123;29;20214;-92
2023/05/22 08:59:49;;;;;;;54.28;26.38;;;16.50;99.90;;;;;;4000897;29;20186;-93
2023/05/22 09:01:51;;;;;;;55.85;27.65;;;16.70;99.90;;;;;;4018650;29;20170;-92
2023/05/22 09:03:52;;;;;;;56.75;27.73;;;16.80;99.90;;;;;;4017660;29;20173;-96
2023/05/22 09:05:53;;;;;;;60.67;28.55;;;17.00;99.90;;;;;;4017720;29;20254;-93
2023/05/22 09:07:55;;;;;;;53.25;28.60;;;17.10;99.90;;;;;;4019485;29;20200;-93
2023/05/22 09:09:56;;;;;;;57.20;28.05;;;17.20;99.90;;;;;;4036403;29;20272;-93
2023/05/22 09:11:57;;;;;;;61.92;27.95;;;17.00;99.90;;;;;;4030297;29;20738;-94
2023/05/22 09:14:10;;;;;;;56.47;28.15;;;17.00;99.90;;;;;;4016424;29;20255;-93
2023/05/22 09:16:14;;;;;;;59.13;28.38;;;17.00;99.90;;;;;;4017563;29;20186;-92
2023/05/22 09:18:55;;;;;;;50.15;27.90;;;17.20;99.90;;;;;;4004454;29;20246;-93
2023/05/22 09:21:50;;;;;;;54.30;27.77;;;17.10;99.90;;;;;;4022262;29;20226;-92
2023/05/22 09:24:02;;;;;;;54.45;26.58;;;17.10;99.90;;;;;;4035473;29;20226;-95
2023/05/22 09:26:03;;;;;;;56.63;27.33;;;17.00;99.90;;;;;;4029097;24;20257;-91
2023/05/22 09:28:16;;;;;;;57.67;27.75;;;17.00;99.90;;;;;;4048323;29;20161;-92
2023/05/22 09:30:25;;;;;;;57.40;28.08;;;17.20;99.90;;;;;;4031194;29;20185;-92
2023/05/22 09:32:36;;;;;;;55.00;28.63;;;17.10;99.90;;;;;;4034576;29;20166;-95
2023/05/22 09:34:37;;;;;;;56.03;27.90;;;16.80;99.90;;;;;;4031798;29;20182;-91
2023/05/22 09:36:39;;;;;;;56.58;26.80;;;16.70;99.90;;;;;;4026115;29;20229;-94
2023/05/22 09:38:40;;;;;;;60.35;28.80;;;16.70;99.90;;;;;;4025834;29;20210;-92
2023/05/22 09:40:41;;;;;;;52.70;28.00;;;17.00;99.90;;;;;;4043226;29;20220;-90
2023/05/22 09:42:44;;;;;;;50.67;28.38;;;17.10;99.90;;;;;;4012477;29;20623;-92
2023/05/22 09:44:48;;;;;;;56.88;28.30;;;17.50;99.90;;;;;;4017292;29;20209;-90
2023/05/22 09:46:49;;;;;;;50.70;26.55;;;17.70;99.90;;;;;;4012432;29;20258;-91
2023/05/22 09:48:53;;;;;;;51.55;26.42;;;17.40;99.90;;;;;;4017329;29;20187;-91
2023/05/22 09:50:58;;;;;;;55.90;28.25;;;17.30;99.90;;;;;;4009491;29;20171;-91
2023/05/22 09:53:03;;;;;;;48.13;26.15;;;17.70;99.90;;;;;;4025390;29;20269;-92
2023/05/22 09:55:05;;;;;;;51.70;26.98;;;17.80;99.90;;;;;;4013572;29;20262;-91
2023/05/22 09:57:08;;;;;;;48.97;27.17;;;17.70;99.90;;;;;;4014047;29;20196;-90
2023/05/22 09:59:13;;;;;;;52.50;28.77;;;17.80;99.90;;;;;;4013048;29;20538;-93
2023/05/22 10:01:15;;;;;;;52.20;27.35;;;18.10;99.90;;;;;;4010808;29;20196;-90
2023/05/22 10:03:21;;;;;;;47.17;28.20;;;18.60;99.90;;;;;;4012804;29;20277;-90
2023/05/22 10:08:10;;;;;;;44.15;25.90;;;18.80;99.90;;;;;;4035896;29;20236;-90
2023/05/22 10:10:37;;;;;;;49.88;25.67;;;18.80;99.90;;;;;;4030290;29;20157;-92
2023/05/22 10:13:15;;;;;;;44.60;25.30;;;18.80;99.90;;;;;;4017214;29;20187;-91
2023/05/22 10:15:17;;;;;;;46.35;25.75;;;19.00;99.90;;;;;;4021748;29;20210;-90
2023/05/22 10:17:30;;;;;;;55.90;27.38;;;18.90;99.90;;;;;;4017395;29;20625;-91
2023/05/22 10:19:35;;;;;;;52.50;26.27;;;19.10;99.90;;;;;;4033049;29;20750;-93
2023/05/22 10:21:37;;;;;;;50.17;25.98;;;19.00;99.90;;;;;;4027386;29;20647;-91
2023/05/22 10:23:39;;;;;;;49.85;25.25;;;19.10;99.90;;;;;;4035072;29;20189;-91
2023/05/22 10:25:40;;;;;;;46.65;27.13;;;18.90;99.90;;;;;;4029956;29;20209;-91
2023/05/22 10:27:41;;;;;;;50.78;26.70;;;18.90;99.90;;;;;;4013855;29;20178;-95
2023/05/22 10:30:20;;;;;;;54.55;28.27;;;18.60;99.90;;;;;;4032366;29;20174;-95